createdAt,value
2023-03-04T00:00:07.561Z,-2.29
2023-03-04T00:02:36.760Z,-2.25
2023-03-04T00:05:03.721Z,-2.31
2023-03-04T00:07:30.192Z,-2.44
2023-03-04T00:09:57.830Z,-2.45
2023-03-04T00:12:24.279Z,-2.29
2023-03-04T00:14:51.477Z,-2.44
2023-03-04T00:17:18.276Z,-2.54
2023-03-04T00:19:44.689Z,-2.47
2023-03-04T00:22:11.170Z,-2.50
2023-03-04T00:24:37.620Z,-2.62
2023-03-04T00:27:04.218Z,-2.56
2023-03-04T00:29:31.639Z,-2.66
2023-03-04T00:31:58.323Z,-2.67
2023-03-04T00:34:25.652Z,-2.77
2023-03-04T00:36:52.060Z,-2.71
2023-03-04T00:39:18.524Z,-2.93
2023-03-04T00:41:44.976Z,-2.85
2023-03-04T00:44:12.224Z,-2.93
2023-03-04T00:46:38.672Z,-2.93
2023-03-04T00:49:05.113Z,-3.05
2023-03-04T00:51:31.521Z,-3.02
2023-03-04T00:54:00.692Z,-3.17
2023-03-04T00:56:27.464Z,-3.35
2023-03-04T00:58:54.608Z,-3.21
2023-03-04T01:01:21.443Z,-3.19
2023-03-04T01:03:47.877Z,-3.24
2023-03-04T01:06:14.580Z,-3.38
2023-03-04T01:08:41.167Z,-3.29
2023-03-04T01:11:08.104Z,-3.18
2023-03-04T01:13:34.644Z,-3.24
2023-03-04T01:16:01.643Z,-3.30
2023-03-04T01:18:28.072Z,-3.21
2023-03-04T01:20:54.717Z,-3.22
2023-03-04T01:23:21.288Z,-3.23
2023-03-04T01:25:48.092Z,-3.29
2023-03-04T01:28:14.622Z,-3.25
2023-03-04T01:30:41.131Z,-3.15
2023-03-04T01:33:07.587Z,-3.07
2023-03-04T01:35:35.557Z,-3.10
2023-03-04T01:38:02.033Z,-3.20
2023-03-04T01:40:28.550Z,-3.36
2023-03-04T01:42:55.094Z,-3.22
2023-03-04T01:45:21.620Z,-3.21
2023-03-04T01:47:49.886Z,-3.19
2023-03-04T01:50:30.031Z,-3.28
2023-03-04T01:52:56.567Z,-3.25
2023-03-04T01:55:24.011Z,-3.21
2023-03-04T01:57:52.381Z,-3.21
2023-03-04T02:00:23.197Z,-3.28
2023-03-04T02:02:52.681Z,-3.43
2023-03-04T02:05:19.572Z,-3.66
2023-03-04T02:07:46.080Z,-3.66
2023-03-04T02:10:13.131Z,-3.60
2023-03-04T02:12:40.381Z,-3.69
2023-03-04T02:15:08.108Z,-3.65
2023-03-04T02:17:34.846Z,-3.65
2023-03-04T02:20:29.695Z,-3.59
2023-03-04T02:23:18.533Z,-3.70
2023-03-04T02:25:55.202Z,-3.70
2023-03-04T02:28:21.880Z,-3.58
2023-03-04T02:30:48.384Z,-3.53
2023-03-04T02:33:17.722Z,-3.71
2023-03-04T02:35:45.088Z,-3.78
2023-03-04T02:38:12.476Z,-4.20
2023-03-04T02:40:42.265Z,-3.99
2023-03-04T02:43:11.738Z,-4.01
2023-03-04T02:45:44.651Z,-4.03
2023-03-04T02:48:12.898Z,-4.03
2023-03-04T02:50:48.737Z,-4.11
2023-03-04T02:53:15.928Z,-4.16
2023-03-04T02:55:43.748Z,-4.23
2023-03-04T02:58:12.089Z,-4.21
2023-03-04T03:00:39.864Z,-4.24
2023-03-04T03:03:07.633Z,-4.05
2023-03-04T03:05:37.142Z,-3.96
2023-03-04T03:08:04.215Z,-3.95
2023-03-04T03:10:31.850Z,-3.90
2023-03-04T03:12:58.304Z,-3.83
2023-03-04T03:15:25.086Z,-3.96
2023-03-04T03:17:51.607Z,-3.94
2023-03-04T03:20:18.866Z,-4.06
2023-03-04T03:22:47.046Z,-4.11
2023-03-04T03:25:16.354Z,-4.15
2023-03-04T03:27:43.121Z,-4.29
2023-03-04T03:30:14.196Z,-4.44
2023-03-04T03:32:40.858Z,-4.32
2023-03-04T03:35:07.949Z,-4.33
2023-03-04T03:37:34.499Z,-4.36
2023-03-04T03:40:01.114Z,-4.41
2023-03-04T03:42:27.613Z,-4.74
2023-03-04T03:44:54.044Z,-4.49
2023-03-04T03:47:20.517Z,-4.52
2023-03-04T03:49:46.974Z,-4.62
2023-03-04T03:52:13.977Z,-4.50
2023-03-04T03:54:40.468Z,-4.48
2023-03-04T03:57:06.848Z,-4.53
2023-03-04T03:59:33.263Z,-4.47
2023-03-04T04:01:59.876Z,-4.53
2023-03-04T04:04:26.612Z,-4.49
2023-03-04T04:06:53.096Z,-4.30
2023-03-04T04:09:19.850Z,-4.37
2023-03-04T04:11:46.364Z,-4.43
2023-03-04T04:14:14.169Z,-4.45
2023-03-04T04:16:41.220Z,-4.39
2023-03-04T04:19:07.838Z,-4.35
2023-03-04T04:21:34.250Z,-4.48
2023-03-04T04:24:00.729Z,-4.46
2023-03-04T04:26:27.145Z,-4.50
2023-03-04T04:28:53.649Z,-4.54
2023-03-04T04:31:20.857Z,-4.48
2023-03-04T04:33:47.342Z,-4.69
2023-03-04T04:36:16.023Z,-4.59
2023-03-04T04:38:42.565Z,-4.61
2023-03-04T04:41:40.645Z,-4.60
2023-03-04T04:44:07.418Z,-4.66
2023-03-04T04:46:34.024Z,-4.76
2023-03-04T04:49:01.422Z,-4.83
2023-03-04T04:51:28.294Z,-4.79
2023-03-04T04:53:55.584Z,-4.74
2023-03-04T04:56:26.155Z,-4.71
2023-03-04T04:58:55.963Z,-4.79
2023-03-04T05:01:22.934Z,-4.74
2023-03-04T05:03:50.584Z,-4.83
2023-03-04T05:06:17.086Z,-4.83
2023-03-04T05:08:43.834Z,-4.86
2023-03-04T05:11:10.381Z,-4.86
2023-03-04T05:13:36.917Z,-4.85
2023-03-04T05:16:03.801Z,-4.68
2023-03-04T05:18:30.463Z,-4.80
2023-03-04T05:21:00.282Z,-4.89
2023-03-04T05:23:32.159Z,-4.84
2023-03-04T05:25:58.697Z,-4.81
2023-03-04T05:28:25.136Z,-4.77
2023-03-04T05:30:51.668Z,-4.63
2023-03-04T05:33:18.849Z,-4.53
2023-03-04T05:35:46.593Z,-4.47
2023-03-04T05:38:15.553Z,-4.57
2023-03-04T05:40:42.793Z,-4.43
2023-03-04T05:43:09.977Z,-4.52
2023-03-04T05:45:37.828Z,-4.47
2023-03-04T05:48:04.800Z,-4.46
2023-03-04T05:50:31.850Z,-4.36
2023-03-04T05:52:58.568Z,-4.39
2023-03-04T05:55:25.543Z,-4.26
2023-03-04T05:57:52.092Z,-4.29
2023-03-04T06:00:19.437Z,-4.36
2023-03-04T06:02:45.948Z,-4.33
2023-03-04T06:05:14.704Z,-4.20
2023-03-04T06:07:43.232Z,-4.30
2023-03-04T06:10:11.704Z,-4.30
2023-03-04T06:12:38.352Z,-4.28
2023-03-04T06:15:06.077Z,-4.31
2023-03-04T06:17:33.255Z,-4.18
2023-03-04T06:19:59.687Z,-4.22
2023-03-04T06:22:26.225Z,-4.10
2023-03-04T06:24:53.058Z,-4.12
2023-03-04T06:27:19.481Z,-4.04
2023-03-04T06:29:45.996Z,-4.00
2023-03-04T06:32:12.489Z,-3.97
2023-03-04T06:34:38.968Z,-3.91
2023-03-04T06:37:05.441Z,-3.88
2023-03-04T06:39:32.795Z,-3.88
2023-03-04T06:41:59.355Z,-3.79
2023-03-04T06:44:25.771Z,-3.75
2023-03-04T06:46:52.303Z,-3.61
2023-03-04T06:49:18.807Z,-3.59
2023-03-04T06:51:45.213Z,-3.56
2023-03-04T06:54:11.688Z,-3.57
2023-03-04T06:56:38.145Z,-3.47
2023-03-04T06:59:04.794Z,-3.48
2023-03-04T07:01:31.356Z,-3.32
2023-03-04T07:03:58.410Z,-3.58
2023-03-04T07:06:27.064Z,-3.22
2023-03-04T07:08:54.021Z,-3.21
2023-03-04T07:11:22.040Z,-3.09
2023-03-04T07:13:49.430Z,-3.11
2023-03-04T07:16:19.516Z,-2.95
2023-03-04T07:18:47.130Z,-2.96
2023-03-04T07:21:15.456Z,-2.85
2023-03-04T07:23:42.211Z,-2.96
2023-03-04T07:26:09.391Z,-2.89
2023-03-04T07:28:36.918Z,-2.90
2023-03-04T07:31:19.107Z,-2.78
2023-03-04T07:33:45.565Z,-2.76
2023-03-04T07:36:14.792Z,-2.71
2023-03-04T07:38:46.756Z,-2.64
2023-03-04T07:41:13.412Z,-2.60
2023-03-04T07:43:39.869Z,-2.49
2023-03-04T07:46:06.618Z,-2.41
2023-03-04T07:48:33.226Z,-2.45
2023-03-04T07:51:12.787Z,-2.29
2023-03-04T07:53:41.462Z,-2.23
2023-03-04T07:56:11.434Z,-2.20
2023-03-04T07:58:38.415Z,-2.10
2023-03-04T08:01:20.379Z,-2.09
2023-03-04T08:03:47.216Z,-2.05
2023-03-04T08:06:16.565Z,-1.98
2023-03-04T08:08:43.762Z,-0.71
2023-03-04T08:11:14.326Z,-0.74
2023-03-04T08:13:41.090Z,-0.56
2023-03-04T08:16:08.121Z,-0.85
2023-03-04T08:18:34.968Z,-1.10
2023-03-04T08:21:01.920Z,-1.18
2023-03-04T08:23:28.365Z,-1.28
2023-03-04T08:25:54.855Z,-1.32
2023-03-04T08:28:21.887Z,-1.30
2023-03-04T08:30:53.298Z,-1.27
2023-03-04T08:33:19.984Z,-1.30
2023-03-04T08:35:46.523Z,-1.25
2023-03-04T08:38:12.987Z,-1.21
2023-03-04T08:40:39.518Z,-1.18
2023-03-04T08:43:05.995Z,-1.14
2023-03-04T08:45:32.468Z,-1.12
2023-03-04T08:47:58.888Z,-1.09
2023-03-04T08:50:27.976Z,-0.99
2023-03-04T08:52:54.597Z,-0.90
2023-03-04T08:55:21.422Z,-1.01
2023-03-04T08:57:47.902Z,-0.91
2023-03-04T09:00:14.900Z,-0.88
2023-03-04T09:02:41.357Z,-0.81
2023-03-04T09:05:08.470Z,-0.82
2023-03-04T09:07:34.972Z,-0.85
2023-03-04T09:10:01.437Z,-0.89
2023-03-04T09:12:28.011Z,-0.86
2023-03-04T09:15:09.922Z,-0.78
2023-03-04T09:17:37.910Z,-0.67
2023-03-04T09:20:05.267Z,-0.66
2023-03-04T09:22:31.990Z,-0.53
2023-03-04T09:24:58.441Z,-0.40
2023-03-04T09:27:25.012Z,-0.34
2023-03-04T09:29:51.419Z,-0.25
2023-03-04T09:32:18.045Z,-0.24
2023-03-04T09:34:44.680Z,-0.26
2023-03-04T09:37:11.544Z,-0.16
2023-03-04T09:39:38.917Z,-0.10
2023-03-04T09:42:07.582Z,-0.01
2023-03-04T09:44:41.039Z,0.09
2023-03-04T09:47:13.687Z,0.17
2023-03-04T09:49:44.348Z,0.29
2023-03-04T09:52:32.852Z,0.37
2023-03-04T09:55:25.585Z,0.44
2023-03-04T09:58:00.527Z,0.45
2023-03-04T10:00:41.948Z,0.49
2023-03-04T10:03:09.772Z,0.56
2023-03-04T10:05:42.408Z,0.64
2023-03-04T10:08:25.689Z,0.70
2023-03-04T10:10:54.734Z,0.79
2023-03-04T10:13:32.221Z,0.95
2023-03-04T10:16:01.013Z,1.00
2023-03-04T10:18:34.128Z,1.00
2023-03-04T10:21:40.766Z,1.06
2023-03-04T10:24:18.112Z,1.07
2023-03-04T10:26:47.130Z,1.15
2023-03-04T10:29:17.340Z,1.22
2023-03-04T10:31:44.694Z,1.24
2023-03-04T10:34:15.573Z,1.27
2023-03-04T10:37:05.714Z,1.32
2023-03-04T10:39:35.960Z,1.45
2023-03-04T10:42:04.216Z,1.48
2023-03-04T10:44:33.735Z,1.52
2023-03-04T10:47:01.166Z,1.64
2023-03-04T10:49:29.259Z,1.72
2023-03-04T10:52:21.989Z,1.71
2023-03-04T10:54:54.810Z,1.66
2023-03-04T10:57:37.912Z,1.62
2023-03-04T11:00:26.246Z,1.63
2023-03-04T11:03:33.972Z,1.79
2023-03-04T11:06:28.836Z,1.69
2023-03-04T11:08:56.933Z,1.75
2023-03-04T11:11:46.649Z,1.87
2023-03-04T11:14:24.069Z,1.95
2023-03-04T11:16:59.840Z,1.72
2023-03-04T11:19:38.951Z,1.83
2023-03-04T11:22:06.229Z,1.89
2023-03-04T11:24:35.651Z,1.96
2023-03-04T11:27:38.335Z,2.01
2023-03-04T11:30:20.188Z,2.01
2023-03-04T11:32:51.661Z,2.02
2023-03-04T11:35:30.805Z,2.04
2023-03-04T11:38:17.435Z,2.13
2023-03-04T11:40:49.702Z,2.13
2023-03-04T11:43:21.928Z,2.13
2023-03-04T11:46:21.890Z,2.27
2023-03-04T11:49:14.567Z,2.39
2023-03-04T11:52:10.417Z,2.10
2023-03-04T11:55:05.016Z,2.14
2023-03-04T11:57:47.503Z,2.15
2023-03-04T12:00:20.413Z,2.18
2023-03-04T12:03:12.692Z,2.12
2023-03-04T12:06:04.081Z,2.11
2023-03-04T12:08:48.209Z,2.30
2023-03-04T12:11:28.123Z,2.39
2023-03-04T12:14:25.513Z,2.50
2023-03-04T12:17:11.874Z,2.56
2023-03-04T12:20:14.199Z,2.46
2023-03-04T12:23:06.834Z,2.47
2023-03-04T12:26:02.620Z,2.16
2023-03-04T12:28:31.917Z,1.71
2023-03-04T12:31:01.376Z,1.56
2023-03-04T12:33:44.512Z,1.88
2023-03-04T12:36:34.422Z,1.80
2023-03-04T12:39:07.537Z,2.04
2023-03-04T12:41:55.723Z,2.09
2023-03-04T12:44:23.185Z,2.19
2023-03-04T12:47:11.472Z,2.17
2023-03-04T12:49:56.821Z,2.20
2023-03-04T12:52:37.309Z,1.96
2023-03-04T12:55:10.336Z,2.09
2023-03-04T12:57:38.295Z,2.20
2023-03-04T13:00:26.670Z,2.32
2023-03-04T13:03:02.323Z,2.27
2023-03-04T13:05:50.437Z,2.32
2023-03-04T13:08:27.237Z,2.35
2023-03-04T13:10:53.996Z,2.41
2023-03-04T13:13:35.986Z,2.48
2023-03-04T13:16:11.578Z,2.29
2023-03-04T13:18:39.465Z,2.12
2023-03-04T13:21:08.005Z,2.01
2023-03-04T13:23:34.982Z,2.15
2023-03-04T13:26:35.480Z,1.80
2023-03-04T13:29:14.122Z,1.70
2023-03-04T13:32:10.804Z,1.45
2023-03-04T13:34:51.778Z,1.58
2023-03-04T13:37:33.456Z,1.73
2023-03-04T13:40:33.616Z,1.35
2023-03-04T13:43:25.982Z,1.60
2023-03-04T13:45:52.487Z,1.75
2023-03-04T13:48:36.346Z,1.52
2023-03-04T13:51:03.266Z,1.58
2023-03-04T13:53:31.243Z,1.77
2023-03-04T13:56:08.656Z,1.93
2023-03-04T13:58:35.958Z,1.69
2023-03-04T14:01:03.275Z,1.82
2023-03-04T14:03:31.722Z,1.90
2023-03-04T14:06:16.690Z,1.90
2023-03-04T14:08:43.446Z,1.99
2023-03-04T14:11:26.092Z,1.77
2023-03-04T14:13:54.427Z,1.77
2023-03-04T14:16:23.594Z,1.95
2023-03-04T14:19:01.961Z,1.99
2023-03-04T14:21:29.718Z,2.10
2023-03-04T14:24:00.892Z,2.08
2023-03-04T14:26:27.361Z,2.29
2023-03-04T14:28:57.345Z,2.31
2023-03-04T14:31:25.335Z,2.08
2023-03-04T14:34:01.803Z,2.28
2023-03-04T14:36:32.594Z,2.45
2023-03-04T14:39:02.413Z,2.56
2023-03-04T14:41:37.844Z,2.69
2023-03-04T14:44:23.991Z,2.68
2023-03-04T14:47:07.436Z,2.70
2023-03-04T14:49:37.562Z,2.73
2023-03-04T14:52:05.150Z,2.78
2023-03-04T14:54:43.580Z,2.74
2023-03-04T14:57:21.012Z,2.82
2023-03-04T14:59:47.905Z,2.85
2023-03-04T15:02:21.439Z,2.90
2023-03-04T15:04:49.331Z,2.85
2023-03-04T15:07:19.927Z,2.85
2023-03-04T15:09:54.802Z,2.91
2023-03-04T15:12:31.637Z,2.96
2023-03-04T15:15:00.408Z,3.00
2023-03-04T15:17:38.857Z,3.04
2023-03-04T15:20:08.961Z,3.07
2023-03-04T15:22:55.866Z,3.05
2023-03-04T15:25:23.013Z,3.07
2023-03-04T15:27:50.892Z,3.14
2023-03-04T15:30:30.177Z,3.07
2023-03-04T15:32:57.975Z,3.14
2023-03-04T15:35:27.351Z,3.17
2023-03-04T15:37:55.985Z,3.11
2023-03-04T15:40:25.659Z,3.17
2023-03-04T15:42:52.200Z,3.14
2023-03-04T15:45:29.024Z,3.15
2023-03-04T15:47:55.568Z,3.11
2023-03-04T15:50:22.435Z,3.13
2023-03-04T15:52:51.188Z,3.12
2023-03-04T15:55:19.536Z,3.09
2023-03-04T15:57:48.869Z,3.02
2023-03-04T16:00:16.922Z,3.04
2023-03-04T16:02:43.469Z,3.03
2023-03-04T16:05:10.773Z,2.97
2023-03-04T16:07:40.469Z,3.04
2023-03-04T16:10:16.009Z,3.03
2023-03-04T16:12:42.534Z,3.00
2023-03-04T16:15:19.285Z,3.00
2023-03-04T16:17:46.775Z,3.01
2023-03-04T16:20:16.049Z,3.00
2023-03-04T16:22:44.815Z,2.98
2023-03-04T16:25:16.287Z,3.00
2023-03-04T16:27:43.639Z,3.01
2023-03-04T16:30:16.239Z,2.98
2023-03-04T16:32:42.853Z,2.92
2023-03-04T16:35:10.176Z,2.96
2023-03-04T16:37:37.588Z,2.98
2023-03-04T16:40:05.435Z,2.96
2023-03-04T16:42:31.970Z,2.93
2023-03-04T16:44:58.528Z,2.93
2023-03-04T16:47:25.031Z,2.91
2023-03-04T16:49:52.018Z,2.86
2023-03-04T16:52:29.700Z,2.96
2023-03-04T16:54:56.312Z,2.94
2023-03-04T16:57:22.979Z,2.91
2023-03-04T16:59:50.010Z,2.88
2023-03-04T17:02:18.889Z,2.87
2023-03-04T17:04:46.736Z,2.75
2023-03-04T17:07:13.302Z,2.85
2023-03-04T17:09:40.657Z,2.80
2023-03-04T17:12:10.786Z,2.85
2023-03-04T17:14:38.070Z,2.84
2023-03-04T17:17:07.012Z,2.82
2023-03-04T17:19:33.550Z,2.80
2023-03-04T17:22:02.156Z,2.82
2023-03-04T17:24:30.588Z,2.67
2023-03-04T17:26:57.021Z,2.76
2023-03-04T17:29:23.488Z,2.76
2023-03-04T17:31:49.953Z,2.75
2023-03-04T17:34:18.346Z,2.73
2023-03-04T17:36:44.836Z,2.70
2023-03-04T17:39:11.953Z,2.68
2023-03-04T17:41:38.592Z,2.55
2023-03-04T17:44:05.889Z,2.69
2023-03-04T17:46:32.509Z,2.69
2023-03-04T17:48:59.688Z,2.68
2023-03-04T17:51:37.923Z,2.74
2023-03-04T17:54:06.516Z,2.61
2023-03-04T17:56:34.375Z,2.61
2023-03-04T17:59:03.050Z,2.63
2023-03-04T18:01:29.653Z,2.50
2023-03-04T18:03:56.340Z,2.47
2023-03-04T18:06:25.046Z,2.46
2023-03-04T18:08:53.095Z,2.45
2023-03-04T18:11:24.723Z,2.42
2023-03-04T18:13:51.606Z,2.41
2023-03-04T18:16:23.407Z,2.41
2023-03-04T18:18:50.958Z,2.41
2023-03-04T18:21:18.349Z,2.28
2023-03-04T18:23:45.823Z,2.33
2023-03-04T18:26:12.646Z,2.36
2023-03-04T18:28:39.852Z,2.38
2023-03-04T18:31:06.328Z,2.32
2023-03-04T18:33:34.089Z,2.27
2023-03-04T18:36:03.056Z,2.22
2023-03-04T18:38:29.997Z,2.24
2023-03-04T18:41:03.751Z,2.26
2023-03-04T18:43:30.237Z,2.32
2023-03-04T18:46:17.054Z,2.32
2023-03-04T18:48:46.614Z,2.25
2023-03-04T18:51:13.397Z,2.29
2023-03-04T18:53:39.835Z,2.28
2023-03-04T18:56:20.014Z,2.21
2023-03-04T18:58:49.307Z,2.07
2023-03-04T19:01:18.726Z,2.10
2023-03-04T19:03:46.581Z,2.03
2023-03-04T19:06:13.420Z,2.01
2023-03-04T19:08:39.857Z,1.94
2023-03-04T19:11:06.332Z,1.94
2023-03-04T19:13:33.021Z,1.92
2023-03-04T19:15:59.588Z,1.91
2023-03-04T19:18:28.681Z,1.96
2023-03-04T19:20:55.169Z,1.94
2023-03-04T19:23:21.642Z,1.98
2023-03-04T19:25:48.167Z,2.00
2023-03-04T19:28:14.844Z,1.98
2023-03-04T19:30:41.553Z,1.95
2023-03-04T19:33:08.266Z,1.95
2023-03-04T19:35:40.233Z,1.97
2023-03-04T19:38:06.776Z,1.96
2023-03-04T19:40:34.180Z,1.96
2023-03-04T19:43:01.508Z,1.93
2023-03-04T19:45:27.960Z,2.01
2023-03-04T19:47:54.814Z,2.01
2023-03-04T19:50:21.453Z,2.00
2023-03-04T19:52:47.921Z,1.98
2023-03-04T19:55:14.397Z,1.96
2023-03-04T19:57:43.076Z,1.90
2023-03-04T20:00:11.195Z,2.05
2023-03-04T20:02:37.915Z,2.06
2023-03-04T20:05:05.940Z,2.09
2023-03-04T20:07:32.354Z,2.02
2023-03-04T20:09:58.846Z,2.09
2023-03-04T20:12:25.685Z,1.97
2023-03-04T20:14:52.182Z,1.87
2023-03-04T20:17:18.918Z,1.85
2023-03-04T20:19:46.130Z,1.76
2023-03-04T20:22:13.360Z,1.68
2023-03-04T20:24:40.002Z,1.68
2023-03-04T20:27:06.727Z,1.57
2023-03-04T20:29:33.222Z,1.57
2023-03-04T20:32:00.006Z,1.57
2023-03-04T20:34:27.293Z,1.52
2023-03-04T20:36:53.718Z,1.45
2023-03-04T20:39:29.192Z,1.50
2023-03-04T20:41:58.411Z,1.52
2023-03-04T20:44:25.045Z,1.51
2023-03-04T20:46:51.596Z,1.54
2023-03-04T20:49:23.171Z,1.50
2023-03-04T20:51:54.868Z,1.55
2023-03-04T20:54:21.662Z,1.58
2023-03-04T20:56:48.265Z,1.66
2023-03-04T20:59:15.114Z,1.71
2023-03-04T21:01:43.861Z,1.74
2023-03-04T21:04:10.915Z,1.84
2023-03-04T21:06:39.100Z,1.76
2023-03-04T21:09:12.004Z,1.69
2023-03-04T21:11:41.896Z,1.78
2023-03-04T21:14:23.577Z,1.77
2023-03-04T21:16:53.302Z,1.76
2023-03-04T21:19:28.021Z,1.82
2023-03-04T21:21:55.541Z,1.85
2023-03-04T21:24:24.910Z,1.84
2023-03-04T21:26:52.551Z,1.82
2023-03-04T21:29:22.121Z,1.83
2023-03-04T21:32:23.259Z,1.88
2023-03-04T21:34:52.752Z,1.81
2023-03-04T21:37:24.149Z,1.81
2023-03-04T21:39:50.972Z,1.76
2023-03-04T21:42:17.562Z,1.80
2023-03-04T21:44:51.920Z,1.82
2023-03-04T21:47:20.143Z,1.77
2023-03-04T21:49:46.690Z,1.86
2023-03-04T21:52:13.483Z,1.85
2023-03-04T21:54:39.940Z,1.85
2023-03-04T21:57:06.471Z,1.85
2023-03-04T21:59:32.930Z,1.79
2023-03-04T22:01:59.578Z,1.78
2023-03-04T22:04:26.093Z,1.77
2023-03-04T22:06:52.585Z,1.75
2023-03-04T22:09:19.049Z,1.78
2023-03-04T22:11:45.567Z,1.78
2023-03-04T22:14:12.610Z,1.76
2023-03-04T22:16:54.068Z,1.71
2023-03-04T22:19:22.438Z,1.69
2023-03-04T22:21:48.877Z,1.71
2023-03-04T22:24:15.280Z,1.74
2023-03-04T22:26:41.709Z,1.78
2023-03-04T22:29:09.039Z,1.80
2023-03-04T22:31:37.952Z,1.83
2023-03-04T22:34:13.089Z,1.82
2023-03-04T22:36:43.166Z,1.93
2023-03-04T22:39:12.241Z,1.97
2023-03-04T22:41:38.955Z,2.01
2023-03-04T22:44:06.410Z,1.96
2023-03-04T22:46:34.741Z,2.00
2023-03-04T22:49:05.105Z,2.05
2023-03-04T22:51:32.300Z,1.93
2023-03-04T22:53:58.768Z,1.87
2023-03-04T22:56:25.397Z,1.90
2023-03-04T22:58:51.985Z,1.83
2023-03-04T23:01:19.717Z,1.73
2023-03-04T23:03:48.168Z,1.79
2023-03-04T23:06:16.030Z,1.79
2023-03-04T23:08:44.827Z,1.77
2023-03-04T23:11:15.148Z,1.92
2023-03-04T23:13:42.124Z,1.76
2023-03-04T23:16:11.739Z,1.83
2023-03-04T23:18:40.348Z,1.86
2023-03-04T23:21:12.615Z,1.92
2023-03-04T23:23:41.144Z,1.82
2023-03-04T23:26:18.160Z,1.81
2023-03-04T23:28:45.161Z,1.82
2023-03-04T23:31:14.639Z,1.76
2023-03-04T23:33:46.472Z,1.74
2023-03-04T23:36:15.652Z,1.75
2023-03-04T23:38:47.999Z,1.84
2023-03-04T23:41:17.146Z,1.78
2023-03-04T23:43:43.771Z,1.86
2023-03-04T23:46:14.000Z,1.81
2023-03-04T23:48:43.162Z,1.75
2023-03-04T23:51:10.319Z,1.71
2023-03-04T23:53:38.984Z,1.69
2023-03-04T23:56:13.809Z,1.75
2023-03-04T23:58:42.241Z,1.85
